createdAt,value
2019-03-25T00:03:12.407Z,60.24
2019-03-25T00:07:15.964Z,60.62
2019-03-25T00:11:19.843Z,60.39
2019-03-25T00:15:23.630Z,60.93
2019-03-25T00:19:27.261Z,61.22
2019-03-25T00:23:30.870Z,61.60
2019-03-25T00:27:34.477Z,62.19
2019-03-25T00:31:38.194Z,62.25
2019-03-25T00:35:41.800Z,61.87
2019-03-25T00:39:45.346Z,62.28
2019-03-25T00:43:48.930Z,61.60
2019-03-25T00:47:52.495Z,61.60
2019-03-25T00:51:56.040Z,61.46
2019-03-25T00:55:59.663Z,61.87
2019-03-25T01:00:03.584Z,61.26
2019-03-25T01:04:07.405Z,61.38
2019-03-25T01:08:11.017Z,61.03
2019-03-25T01:12:15.039Z,61.20
2019-03-25T01:16:18.754Z,61.34
2019-03-25T01:20:22.516Z,61.10
2019-03-25T01:24:27.947Z,60.75
2019-03-25T01:28:32.151Z,60.50
2019-03-25T01:32:36.400Z,60.96
2019-03-25T01:36:40.103Z,60.93
2019-03-25T01:40:43.718Z,60.67
2019-03-25T01:44:47.330Z,60.91
2019-03-25T01:48:50.945Z,60.60
2019-03-25T01:52:54.490Z,60.82
2019-03-25T01:56:58.178Z,60.69
2019-03-25T02:01:01.787Z,60.93
2019-03-25T02:05:06.900Z,60.80
2019-03-25T02:09:10.550Z,60.99
2019-03-25T02:13:14.164Z,61.88
2019-03-25T02:17:17.880Z,63.21
2019-03-25T02:21:21.504Z,63.11
2019-03-25T02:25:25.944Z,62.80
2019-03-25T02:29:29.746Z,62.93
2019-03-25T02:33:33.565Z,64.14
2019-03-25T02:37:37.177Z,64.37
2019-03-25T02:41:40.793Z,65.34
2019-03-25T02:45:44.410Z,65.31
2019-03-25T02:49:48.017Z,65.27
2019-03-25T02:53:51.559Z,64.97
2019-03-25T02:57:55.150Z,65.63
2019-03-25T03:01:58.861Z,66.68
2019-03-25T03:06:02.582Z,67.71
2019-03-25T03:10:07.585Z,68.33
2019-03-25T03:14:14.893Z,69.25
2019-03-25T03:18:16.490Z,69.81
2019-03-25T03:22:20.205Z,69.85
2019-03-25T03:26:23.925Z,69.85
2019-03-25T03:30:27.754Z,70.65
2019-03-25T03:34:31.276Z,71.11
2019-03-25T03:38:34.871Z,71.41
2019-03-25T03:42:38.680Z,71.45
2019-03-25T03:46:42.312Z,71.06
2019-03-25T03:50:46.015Z,71.83
2019-03-25T03:54:50.384Z,71.35
2019-03-25T03:58:54.265Z,71.46
2019-03-25T04:02:57.927Z,71.41
2019-03-25T04:07:01.518Z,71.47
2019-03-25T04:11:05.212Z,71.32
2019-03-25T04:15:09.176Z,71.96
2019-03-25T04:19:12.751Z,72.16
2019-03-25T04:23:16.368Z,72.28
2019-03-25T04:27:21.611Z,72.23
2019-03-25T04:31:25.324Z,72.39
2019-03-25T04:35:29.042Z,72.10
2019-03-25T04:39:32.666Z,72.18
2019-03-25T04:43:36.188Z,72.60
2019-03-25T04:47:39.788Z,72.68
2019-03-25T04:51:44.852Z,72.54
2019-03-25T04:55:48.748Z,72.92
2019-03-25T04:59:52.360Z,72.47
2019-03-25T05:03:55.975Z,72.60
2019-03-25T05:07:59.691Z,72.65
2019-03-25T05:12:03.414Z,72.67
2019-03-25T05:16:07.019Z,72.49
2019-03-25T05:20:10.737Z,72.79
2019-03-25T05:24:14.978Z,72.73
2019-03-25T05:28:18.690Z,72.41
2019-03-25T05:32:22.401Z,72.29
2019-03-25T05:36:26.014Z,72.29
2019-03-25T05:40:29.631Z,72.03
2019-03-25T05:44:33.239Z,71.84
2019-03-25T05:48:36.858Z,72.00
2019-03-25T05:52:40.576Z,71.61
2019-03-25T05:56:44.394Z,71.20
2019-03-25T06:00:48.107Z,71.01
2019-03-25T06:04:51.722Z,69.97
2019-03-25T06:08:55.335Z,70.80
2019-03-25T06:12:59.058Z,69.56
2019-03-25T06:17:02.666Z,70.25
2019-03-25T06:21:06.386Z,70.14
2019-03-25T06:25:10.259Z,70.36
2019-03-25T06:29:13.921Z,70.40
2019-03-25T06:33:17.627Z,70.16
2019-03-25T06:37:21.244Z,70.12
2019-03-25T06:41:24.960Z,69.06
2019-03-25T06:45:28.577Z,68.90
2019-03-25T06:49:32.187Z,67.75
2019-03-25T06:53:35.912Z,62.52
2019-03-25T06:57:39.829Z,58.91
2019-03-25T07:01:43.540Z,53.23
2019-03-25T07:05:47.153Z,55.57
2019-03-25T07:09:50.879Z,57.18
2019-03-25T07:13:55.204Z,59.33
2019-03-25T07:17:59.937Z,59.20
2019-03-25T07:22:03.559Z,60.06
2019-03-25T07:26:07.277Z,57.21
2019-03-25T07:30:11.670Z,59.45
2019-03-25T07:34:15.471Z,61.43
2019-03-25T07:38:19.139Z,60.82
2019-03-25T07:42:22.751Z,61.96
2019-03-25T07:46:26.367Z,62.72
2019-03-25T07:50:30.082Z,64.33
2019-03-25T07:54:33.818Z,65.13
2019-03-25T07:58:37.365Z,66.07
2019-03-25T08:02:41.050Z,65.56
2019-03-25T08:06:44.742Z,64.63
2019-03-25T08:10:48.717Z,63.24
2019-03-25T08:14:52.295Z,61.65
2019-03-25T08:18:55.990Z,60.33
2019-03-25T08:22:59.708Z,62.68
2019-03-25T08:27:03.427Z,62.93
2019-03-25T08:31:07.140Z,61.45
2019-03-25T08:35:11.311Z,61.52
2019-03-25T08:39:15.209Z,61.47
2019-03-25T08:43:19.057Z,64.01
2019-03-25T08:47:22.625Z,65.61
2019-03-25T08:51:26.577Z,67.78
2019-03-25T08:55:30.258Z,68.69
2019-03-25T08:59:33.978Z,69.48
2019-03-25T09:03:38.050Z,69.77
2019-03-25T09:07:41.752Z,69.96
2019-03-25T09:11:45.776Z,69.69
2019-03-25T09:15:49.314Z,69.51
2019-03-25T09:19:53.076Z,69.01
2019-03-25T09:23:57.296Z,69.48
2019-03-25T09:28:01.217Z,68.49
2019-03-25T09:32:04.933Z,68.57
2019-03-25T09:36:08.765Z,68.22
2019-03-25T09:40:12.677Z,67.45
2019-03-25T09:44:16.301Z,64.41
2019-03-25T09:48:20.233Z,64.41
2019-03-25T09:52:23.992Z,64.33
2019-03-25T09:56:27.778Z,62.62
2019-03-25T10:00:32.736Z,60.76
2019-03-25T10:04:36.403Z,59.83
2019-03-25T10:08:40.022Z,61.47
2019-03-25T10:12:43.739Z,60.59
2019-03-25T10:16:47.368Z,62.47
2019-03-25T10:20:50.960Z,64.86
2019-03-25T10:24:54.579Z,64.98
2019-03-25T10:28:58.303Z,66.35
2019-03-25T10:33:01.903Z,66.92
2019-03-25T10:37:06.057Z,69.23
2019-03-25T10:41:09.862Z,70.11
2019-03-25T10:45:14.591Z,70.20
2019-03-25T10:49:18.304Z,70.73
2019-03-25T10:53:21.987Z,70.72
2019-03-25T10:57:25.637Z,71.09
2019-03-25T11:01:29.451Z,70.93
2019-03-25T11:05:33.169Z,69.45
2019-03-25T11:09:36.892Z,64.74
2019-03-25T11:13:41.839Z,63.78
2019-03-25T11:17:45.555Z,61.31
2019-03-25T11:21:49.268Z,59.47
2019-03-25T11:25:52.981Z,62.35
2019-03-25T11:29:56.600Z,64.40
2019-03-25T11:34:00.309Z,65.02
2019-03-25T11:38:03.922Z,64.44
2019-03-25T11:42:10.183Z,63.30
2019-03-25T11:46:13.329Z,64.52
2019-03-25T11:50:17.120Z,62.82
2019-03-25T11:54:20.839Z,62.51
2019-03-25T11:58:24.450Z,60.86
2019-03-25T12:02:28.166Z,62.35
2019-03-25T12:06:31.885Z,61.89
2019-03-25T12:10:35.582Z,59.37
2019-03-25T12:14:39.211Z,61.09
2019-03-25T12:18:42.827Z,58.34
2019-03-25T12:22:46.552Z,57.28
2019-03-25T12:26:50.260Z,56.36
2019-03-25T12:30:53.912Z,53.54
2019-03-25T12:34:57.598Z,54.55
2019-03-25T12:39:01.134Z,56.47
2019-03-25T12:43:04.921Z,55.44
2019-03-25T12:47:08.532Z,56.96
2019-03-25T12:51:12.249Z,59.59
2019-03-25T12:55:15.867Z,63.08
2019-03-25T12:59:19.487Z,65.18
2019-03-25T13:03:23.192Z,65.33
2019-03-25T13:07:26.812Z,64.29
2019-03-25T13:11:30.425Z,60.22
2019-03-25T13:15:34.139Z,59.32
2019-03-25T13:19:37.748Z,59.11
2019-03-25T13:23:41.364Z,60.48
2019-03-25T13:27:45.015Z,57.82
2019-03-25T13:31:48.589Z,58.12
2019-03-25T13:35:52.616Z,58.97
2019-03-25T13:39:56.235Z,57.79
2019-03-25T13:43:59.846Z,57.27
2019-03-25T13:48:03.421Z,58.07
2019-03-25T13:52:07.073Z,58.00
2019-03-25T13:56:11.916Z,56.32
2019-03-25T14:00:16.096Z,57.20
2019-03-25T14:04:19.772Z,57.46
2019-03-25T14:08:23.378Z,55.70
2019-03-25T14:12:26.986Z,55.45
2019-03-25T14:16:30.546Z,54.92
2019-03-25T14:20:34.222Z,54.42
2019-03-25T14:24:38.237Z,52.93
2019-03-25T14:28:42.220Z,52.97
2019-03-25T14:32:45.990Z,54.68
2019-03-25T14:36:49.592Z,57.96
2019-03-25T14:40:53.199Z,60.41
2019-03-25T14:44:56.919Z,62.28
2019-03-25T14:49:00.739Z,60.47
2019-03-25T14:53:04.459Z,60.13
2019-03-25T14:57:08.403Z,59.43
2019-03-25T15:01:12.674Z,59.99
2019-03-25T15:05:16.551Z,59.13
2019-03-25T15:09:20.154Z,59.68
2019-03-25T15:13:23.959Z,57.54
2019-03-25T15:17:27.683Z,57.90
2019-03-25T15:21:31.288Z,56.66
2019-03-25T15:25:35.554Z,58.79
2019-03-25T15:29:39.436Z,57.81
2019-03-25T15:33:43.592Z,55.79
2019-03-25T15:37:47.431Z,55.67
2019-03-25T15:41:51.204Z,56.66
2019-03-25T15:45:55.270Z,58.13
2019-03-25T15:49:59.871Z,58.10
2019-03-25T15:54:03.883Z,58.07
2019-03-25T15:58:07.814Z,58.20
2019-03-25T16:02:11.491Z,58.05
2019-03-25T16:06:15.149Z,56.70
2019-03-25T16:10:18.956Z,57.49
2019-03-25T16:14:22.780Z,58.89
2019-03-25T16:18:38.179Z,58.61
2019-03-25T16:22:41.761Z,57.90
2019-03-25T16:26:45.611Z,58.05
2019-03-25T16:30:58.256Z,58.39
2019-03-25T16:34:55.002Z,59.97
2019-03-25T16:38:58.594Z,60.72
2019-03-25T16:43:02.353Z,60.04
2019-03-25T16:47:06.156Z,60.38
2019-03-25T16:51:09.757Z,61.28
2019-03-25T16:55:13.569Z,61.11
2019-03-25T16:59:17.334Z,60.61
2019-03-25T17:03:20.994Z,59.12
2019-03-25T17:07:25.629Z,59.72
2019-03-25T17:11:29.244Z,58.76
2019-03-25T17:15:34.085Z,58.07
2019-03-25T17:19:37.704Z,57.94
2019-03-25T17:23:41.418Z,57.83
2019-03-25T17:27:45.031Z,57.49
2019-03-25T17:31:48.645Z,56.74
2019-03-25T17:35:52.270Z,57.31
2019-03-25T17:39:55.824Z,55.88
2019-03-25T17:43:59.483Z,56.95
2019-03-25T17:48:03.116Z,56.86
2019-03-25T17:52:06.718Z,56.70
2019-03-25T17:56:10.330Z,56.00
2019-03-25T18:00:14.842Z,56.75
2019-03-25T18:04:18.476Z,56.85
2019-03-25T18:08:22.096Z,56.34
2019-03-25T18:12:25.708Z,56.43
2019-03-25T18:16:29.425Z,57.63
2019-03-25T18:20:33.039Z,57.41
2019-03-25T18:24:36.756Z,57.90
2019-03-25T18:28:40.367Z,58.21
2019-03-25T18:32:43.982Z,58.68
2019-03-25T18:36:47.593Z,57.68
2019-03-25T18:40:51.207Z,58.31
2019-03-25T18:44:54.923Z,59.26
2019-03-25T18:48:58.539Z,58.68
2019-03-25T18:53:02.373Z,58.37
2019-03-25T18:57:06.073Z,59.05
2019-03-25T19:01:09.775Z,59.55
2019-03-25T19:05:13.516Z,59.57
2019-03-25T19:09:21.372Z,60.36
2019-03-25T19:13:24.944Z,60.18
2019-03-25T19:17:28.557Z,61.36
2019-03-25T19:21:32.091Z,61.27
2019-03-25T19:25:35.782Z,61.90
2019-03-25T19:29:39.394Z,61.31
2019-03-25T19:33:43.003Z,63.13
2019-03-25T19:37:46.724Z,63.21
2019-03-25T19:41:51.222Z,64.01
2019-03-25T19:45:54.876Z,64.96
2019-03-25T19:49:58.526Z,64.46
2019-03-25T19:54:02.097Z,64.70
2019-03-25T19:58:06.886Z,64.68
2019-03-25T20:02:19.090Z,64.45
2019-03-25T20:06:25.750Z,64.74
2019-03-25T20:10:32.605Z,64.98
2019-03-25T20:14:36.239Z,65.25
2019-03-25T20:18:39.870Z,65.99
2019-03-25T20:22:43.694Z,66.46
2019-03-25T20:26:47.287Z,66.88
2019-03-25T20:30:51.018Z,67.12
2019-03-25T20:34:54.642Z,67.40
2019-03-25T20:38:58.232Z,67.75
2019-03-25T20:43:01.783Z,67.90
2019-03-25T20:47:05.518Z,68.53
2019-03-25T20:51:09.173Z,68.52
2019-03-25T20:55:12.791Z,68.66
2019-03-25T20:59:16.610Z,68.94
2019-03-25T21:03:20.454Z,70.02
2019-03-25T21:07:24.067Z,70.01
2019-03-25T21:11:27.679Z,70.34
2019-03-25T21:15:32.328Z,70.39
2019-03-25T21:19:35.905Z,70.89
2019-03-25T21:23:39.555Z,70.96
2019-03-25T21:27:43.139Z,70.99
2019-03-25T21:31:46.806Z,70.96
2019-03-25T21:35:50.565Z,70.93
2019-03-25T21:39:54.192Z,71.35
2019-03-25T21:43:57.805Z,71.78
2019-03-25T21:48:01.414Z,71.90
2019-03-25T21:52:05.163Z,71.67
2019-03-25T21:56:08.833Z,71.60
2019-03-25T22:00:13.170Z,71.45
2019-03-25T22:04:16.886Z,71.37
2019-03-25T22:08:20.501Z,71.27
2019-03-25T22:12:24.159Z,71.40
2019-03-25T22:16:27.733Z,71.40
2019-03-25T22:20:31.434Z,71.58
2019-03-25T22:24:35.057Z,71.92
2019-03-25T22:28:38.621Z,72.10
2019-03-25T22:32:42.285Z,71.97
2019-03-25T22:36:45.949Z,71.76
2019-03-25T22:40:49.536Z,71.69
2019-03-25T22:44:53.230Z,71.51
2019-03-25T22:48:56.953Z,71.79
2019-03-25T22:53:00.855Z,71.90
2019-03-25T22:57:04.482Z,71.25
2019-03-25T23:01:08.277Z,71.27
2019-03-25T23:05:12.115Z,71.70
2019-03-25T23:09:15.836Z,71.60
2019-03-25T23:13:19.447Z,71.46
2019-03-25T23:17:23.061Z,71.48
2019-03-25T23:21:26.674Z,71.68
2019-03-25T23:25:30.397Z,71.86
2019-03-25T23:29:34.031Z,71.78
2019-03-25T23:33:37.721Z,71.77
2019-03-25T23:37:41.336Z,71.78
2019-03-25T23:41:44.876Z,71.88
2019-03-25T23:45:48.457Z,71.58
2019-03-25T23:49:52.180Z,71.81
2019-03-25T23:53:57.426Z,71.53
2019-03-25T23:58:01.040Z,71.37
